createdAt,value
2022-12-11T00:00:29.556Z,95352.66
2022-12-11T00:02:59.201Z,95335.08
2022-12-11T00:05:26.940Z,95330.80
2022-12-11T00:07:54.326Z,95321.72
2022-12-11T00:10:22.162Z,95316.88
2022-12-11T00:12:49.729Z,95308.16
2022-12-11T00:15:17.879Z,95310.63
2022-12-11T00:17:45.356Z,95305.96
2022-12-11T00:20:12.992Z,95292.41
2022-12-11T00:22:40.439Z,95286.77
2022-12-11T00:25:09.417Z,95274.80
2022-12-11T00:27:37.282Z,95274.77
2022-12-11T00:30:06.652Z,95270.09
2022-12-11T00:32:37.557Z,95257.31
2022-12-11T00:35:05.229Z,95253.45
2022-12-11T00:37:32.946Z,95257.73
2022-12-11T00:40:00.702Z,95256.58
2022-12-11T00:42:28.522Z,95250.82
2022-12-11T00:44:56.334Z,95232.89
2022-12-11T00:47:24.176Z,95234.70
2022-12-11T00:49:51.633Z,95236.66
2022-12-11T00:52:19.269Z,95238.07
2022-12-11T00:54:46.937Z,95228.11
2022-12-11T00:57:14.532Z,95226.78
2022-12-11T00:59:41.997Z,95224.69
2022-12-11T01:02:09.629Z,95217.38
2022-12-11T01:04:37.308Z,95213.89
2022-12-11T01:07:04.950Z,95213.50
2022-12-11T01:09:51.231Z,95202.27
2022-12-11T01:12:18.827Z,95196.47
2022-12-11T01:14:46.356Z,95188.91
2022-12-11T01:17:14.258Z,95188.70
2022-12-11T01:19:42.237Z,95181.69
2022-12-11T01:22:09.876Z,95177.03
2022-12-11T01:24:37.816Z,95164.25
2022-12-11T01:27:05.473Z,95160.75
2022-12-11T01:29:32.901Z,95152.25
2022-12-11T01:32:00.632Z,95145.08
2022-12-11T01:34:32.798Z,95147.40
2022-12-11T01:37:00.133Z,95136.59
2022-12-11T01:39:28.299Z,95148.14
2022-12-11T01:41:58.769Z,95143.90
2022-12-11T01:44:34.583Z,95131.16
2022-12-11T01:47:02.077Z,95124.42
2022-12-11T01:49:29.751Z,95125.59
2022-12-11T01:52:11.295Z,95110.77
2022-12-11T01:54:39.352Z,95108.72
2022-12-11T01:57:10.947Z,95107.20
2022-12-11T01:59:42.477Z,95105.89
2022-12-11T02:02:24.647Z,95090.47
2022-12-11T02:04:52.236Z,95089.12
2022-12-11T02:07:20.035Z,95081.20
2022-12-11T02:09:48.715Z,95081.98
2022-12-11T02:12:53.813Z,95076.80
2022-12-11T02:15:39.095Z,95077.77
2022-12-11T02:18:17.784Z,95064.03
2022-12-11T02:21:14.998Z,95055.33
2022-12-11T02:24:02.488Z,95053.00
2022-12-11T02:26:59.844Z,95056.28
2022-12-11T02:29:38.897Z,95059.20
2022-12-11T02:32:17.485Z,95053.77
2022-12-11T02:34:53.547Z,95055.71
2022-12-11T02:37:24.847Z,95056.28
2022-12-11T02:39:55.288Z,95060.91
2022-12-11T02:42:27.259Z,95058.77
2022-12-11T02:44:57.815Z,95053.92
2022-12-11T02:47:28.727Z,95055.28
2022-12-11T02:49:58.918Z,95052.35
2022-12-11T02:52:30.270Z,95048.86
2022-12-11T02:55:01.055Z,95042.11
2022-12-11T02:57:39.699Z,95037.26
2022-12-11T03:00:09.808Z,95034.77
2022-12-11T03:02:38.930Z,95029.92
2022-12-11T03:05:08.088Z,95034.22
2022-12-11T03:07:39.963Z,95041.38
2022-12-11T03:10:13.997Z,95030.58
2022-12-11T03:12:47.052Z,95022.45
2022-12-11T03:15:17.872Z,95024.80
2022-12-11T03:18:07.699Z,95014.37
2022-12-11T03:20:46.839Z,95012.62
2022-12-11T03:23:47.061Z,95013.03
2022-12-11T03:26:17.193Z,95015.72
2022-12-11T03:28:56.219Z,95010.12
2022-12-11T03:31:32.393Z,95007.22
2022-12-11T03:34:04.833Z,95001.03
2022-12-11T03:36:38.805Z,95004.69
2022-12-11T03:39:13.779Z,95008.37
2022-12-11T03:41:44.453Z,95006.62
2022-12-11T03:44:13.870Z,95000.64
2022-12-11T03:46:45.616Z,95001.98
2022-12-11T03:49:17.961Z,95003.50
2022-12-11T03:51:49.153Z,95007.17
2022-12-11T03:54:21.794Z,95003.11
2022-12-11T03:56:56.948Z,95000.97
2022-12-11T03:59:25.506Z,95001.37
2022-12-11T04:01:53.813Z,94999.61
2022-12-11T04:04:22.614Z,94996.13
2022-12-11T04:06:50.464Z,95003.30
2022-12-11T04:09:18.003Z,95000.97
2022-12-11T04:11:45.444Z,94999.23
2022-12-11T04:14:32.916Z,94987.47
2022-12-11T04:17:01.401Z,94981.28
2022-12-11T04:19:47.981Z,94969.11
2022-12-11T04:22:35.498Z,94976.08
2022-12-11T04:25:07.000Z,94972.79
2022-12-11T04:27:49.894Z,94963.91
2022-12-11T04:30:28.037Z,94966.40
2022-12-11T04:32:54.941Z,94960.98
2022-12-11T04:35:23.232Z,94957.70
2022-12-11T04:37:52.460Z,94953.27
2022-12-11T04:40:20.801Z,94947.45
2022-12-11T04:42:48.595Z,94950.95
2022-12-11T04:45:16.444Z,94943.59
2022-12-11T04:47:44.082Z,94938.18
2022-12-11T04:50:14.471Z,94939.73
2022-12-11T04:52:42.981Z,94937.98
2022-12-11T04:55:11.876Z,94938.95
2022-12-11T04:57:39.776Z,94943.19
2022-12-11T05:00:11.062Z,94932.57
2022-12-11T05:02:40.483Z,94931.61
2022-12-11T05:05:10.667Z,94925.02
2022-12-11T05:07:38.988Z,94914.58
2022-12-11T05:10:08.741Z,94919.40
2022-12-11T05:12:36.496Z,94920.38
2022-12-11T05:15:05.899Z,94918.81
2022-12-11T05:17:34.165Z,94917.27
2022-12-11T05:20:01.648Z,94913.62
2022-12-11T05:22:31.336Z,94915.34
2022-12-11T05:24:59.128Z,94912.64
2022-12-11T05:27:26.970Z,94908.77
2022-12-11T05:29:59.360Z,94905.48
2022-12-11T05:32:27.161Z,94905.71
2022-12-11T05:34:54.874Z,94903.00
2022-12-11T05:37:22.339Z,94909.19
2022-12-11T05:39:49.987Z,94904.92
2022-12-11T05:42:17.816Z,94898.75
2022-12-11T05:44:45.970Z,94898.75
2022-12-11T05:47:13.715Z,94898.34
2022-12-11T05:49:41.350Z,94892.16
2022-12-11T05:52:09.118Z,94894.89
2022-12-11T05:54:36.875Z,94895.83
2022-12-11T05:57:04.456Z,94904.34
2022-12-11T05:59:31.900Z,94905.30
2022-12-11T06:01:59.623Z,94903.33
2022-12-11T06:04:27.566Z,94903.48
2022-12-11T06:06:55.245Z,94914.50
2022-12-11T06:09:22.747Z,94903.28
2022-12-11T06:11:50.514Z,94893.63
2022-12-11T06:14:18.030Z,94889.58
2022-12-11T06:16:45.576Z,94886.11
2022-12-11T06:19:16.888Z,94896.36
2022-12-11T06:21:48.159Z,94890.95
2022-12-11T06:24:15.642Z,94898.48
2022-12-11T06:26:42.855Z,94896.75
2022-12-11T06:29:12.901Z,94896.03
2022-12-11T06:31:39.730Z,94893.70
2022-12-11T06:34:07.954Z,94907.62
2022-12-11T06:36:35.491Z,94905.31
2022-12-11T06:39:03.436Z,94916.34
2022-12-11T06:41:30.923Z,94921.94
2022-12-11T06:43:58.477Z,94930.66
2022-12-11T06:46:25.925Z,94936.06
2022-12-11T06:48:53.590Z,94933.54
2022-12-11T06:51:24.408Z,94941.84
2022-12-11T06:53:55.486Z,94952.08
2022-12-11T06:56:24.377Z,94951.88
2022-12-11T06:58:52.611Z,94955.16
2022-12-11T07:01:24.985Z,94964.44
2022-12-11T07:03:58.827Z,94968.86
2022-12-11T07:06:28.439Z,94973.70
2022-12-11T07:08:56.723Z,94988.95
2022-12-11T07:11:24.553Z,94992.42
2022-12-11T07:13:52.218Z,95008.06
2022-12-11T07:16:21.028Z,95016.98
2022-12-11T07:18:50.872Z,95024.70
2022-12-11T07:21:20.597Z,95039.02
2022-12-11T07:23:49.321Z,95048.30
2022-12-11T07:26:20.515Z,95049.08
2022-12-11T07:28:48.495Z,95062.04
2022-12-11T07:31:22.682Z,95066.89
2022-12-11T07:33:55.096Z,95081.20
2022-12-11T07:36:23.959Z,95081.61
2022-12-11T07:38:51.551Z,95091.46
2022-12-11T07:41:19.476Z,95095.16
2022-12-11T07:43:50.335Z,95090.70
2022-12-11T07:46:22.934Z,95080.45
2022-12-11T07:48:51.222Z,95083.16
2022-12-11T07:51:29.958Z,95087.40
2022-12-11T07:54:01.882Z,95095.52
2022-12-11T07:56:30.934Z,95090.91
2022-12-11T07:59:00.686Z,95089.34
2022-12-11T08:01:30.463Z,95091.67
2022-12-11T08:03:58.090Z,95096.33
2022-12-11T08:06:29.906Z,95100.98
2022-12-11T08:08:59.227Z,95101.36
2022-12-11T08:11:27.280Z,95108.73
2022-12-11T08:13:55.594Z,95118.39
2022-12-11T08:16:23.616Z,95121.50
2022-12-11T08:18:52.272Z,95138.13
2022-12-11T08:21:24.317Z,95141.43
2022-12-11T08:23:53.845Z,95153.63
2022-12-11T08:26:31.108Z,95164.66
2022-12-11T08:29:01.978Z,95169.92
2022-12-11T08:31:30.061Z,95173.41
2022-12-11T08:33:58.208Z,95179.98
2022-12-11T08:36:26.255Z,95189.30
2022-12-11T08:38:55.903Z,95194.72
2022-12-11T08:41:29.610Z,95200.72
2022-12-11T08:43:59.886Z,95205.15
2022-12-11T08:46:31.394Z,95212.49
2022-12-11T08:48:59.891Z,95220.80
2022-12-11T08:51:29.889Z,95220.77
2022-12-11T08:54:00.693Z,95223.28
2022-12-11T08:56:30.093Z,95225.17
2022-12-11T08:59:00.587Z,95224.76
2022-12-11T09:01:28.859Z,95232.09
2022-12-11T09:03:57.086Z,95239.20
2022-12-11T09:06:28.511Z,95255.03
2022-12-11T09:08:59.695Z,95261.39
2022-12-11T09:11:31.792Z,95268.30
2022-12-11T09:14:06.805Z,95274.56
2022-12-11T09:16:31.270Z,95273.16
2022-12-11T09:19:00.254Z,95276.93
2022-12-11T09:21:30.514Z,95285.75
2022-12-11T09:24:01.062Z,95287.58
2022-12-11T09:26:30.449Z,95287.52
2022-12-11T09:28:58.295Z,95288.37
2022-12-11T09:31:30.540Z,95299.78
2022-12-11T09:34:02.591Z,95304.67
2022-12-11T09:36:31.491Z,95315.84
2022-12-11T09:39:05.747Z,95317.48
2022-12-11T09:41:40.126Z,95317.08
2022-12-11T09:44:31.457Z,95324.62
2022-12-11T09:47:00.494Z,95329.77
2022-12-11T09:49:39.846Z,95326.30
2022-12-11T09:52:34.446Z,95332.24
2022-12-11T09:55:16.343Z,95330.55
2022-12-11T09:58:01.541Z,95340.18
2022-12-11T10:00:43.814Z,95350.13
2022-12-11T10:03:25.541Z,95357.48
2022-12-11T10:06:28.961Z,95358.36
2022-12-11T10:09:13.720Z,95367.16
2022-12-11T10:12:28.229Z,95370.62
2022-12-11T10:15:20.909Z,95378.72
2022-12-11T10:17:48.668Z,95377.27
2022-12-11T10:20:39.455Z,95382.38
2022-12-11T10:23:11.440Z,95379.58
2022-12-11T10:25:43.975Z,95391.27
2022-12-11T10:28:20.549Z,95389.55
2022-12-11T10:31:20.050Z,95386.86
2022-12-11T10:34:03.939Z,95394.44
2022-12-11T10:36:38.674Z,95411.13
2022-12-11T10:39:19.808Z,95413.92
2022-12-11T10:41:53.412Z,95405.63
2022-12-11T10:44:25.227Z,95418.38
2022-12-11T10:47:14.580Z,95427.53
2022-12-11T10:49:58.995Z,95434.41
2022-12-11T10:52:39.202Z,95440.36
2022-12-11T10:55:21.379Z,95449.90
2022-12-11T10:58:03.086Z,95454.51
2022-12-11T11:00:38.507Z,95462.70
2022-12-11T11:03:26.941Z,95473.61
2022-12-11T11:06:18.473Z,95473.94
2022-12-11T11:08:49.712Z,95466.67
2022-12-11T11:11:34.243Z,95467.51
2022-12-11T11:14:18.167Z,95470.20
2022-12-11T11:16:49.701Z,95456.14
2022-12-11T11:19:35.622Z,95465.38
2022-12-11T11:22:13.630Z,95470.52
2022-12-11T11:24:55.498Z,95473.53
2022-12-11T11:27:34.437Z,95487.11
2022-12-11T11:30:10.522Z,95493.38
2022-12-11T11:32:39.797Z,95488.64
2022-12-11T11:35:18.693Z,95505.77
2022-12-11T11:37:56.953Z,95499.36
2022-12-11T11:40:32.811Z,95505.53
2022-12-11T11:43:30.321Z,95511.44
2022-12-11T11:46:06.397Z,95516.39
2022-12-11T11:48:41.979Z,95514.73
2022-12-11T11:51:27.041Z,95520.59
2022-12-11T11:53:59.089Z,95520.66
2022-12-11T11:56:37.075Z,95523.99
2022-12-11T11:59:30.857Z,95527.53
2022-12-11T12:01:59.471Z,95526.81
2022-12-11T12:04:34.456Z,95524.58
2022-12-11T12:07:41.312Z,95531.80
2022-12-11T12:10:26.708Z,95533.38
2022-12-11T12:13:18.776Z,95530.10
2022-12-11T12:15:59.595Z,95534.49
2022-12-11T12:18:48.325Z,95532.94
2022-12-11T12:21:39.744Z,95535.75
2022-12-11T12:24:31.229Z,95530.81
2022-12-11T12:27:51.450Z,95540.10
2022-12-11T12:30:07.860Z,95551.52
2022-12-11T12:32:56.323Z,95556.97
2022-12-11T12:35:46.977Z,95561.84
2022-12-11T12:38:40.875Z,95576.63
2022-12-11T12:41:26.197Z,95593.93
2022-12-11T12:44:16.362Z,95604.55
2022-12-11T12:46:58.564Z,95600.79
2022-12-11T12:49:37.895Z,95600.60
2022-12-11T12:52:13.321Z,95602.41
2022-12-11T12:54:47.576Z,95600.31
2022-12-11T12:57:15.419Z,95600.00
2022-12-11T12:59:44.641Z,95598.77
2022-12-11T13:02:15.767Z,95604.84
2022-12-11T13:04:56.109Z,95613.02
2022-12-11T13:07:19.899Z,95634.35
2022-12-11T13:10:09.873Z,95637.39
2022-12-11T13:12:46.671Z,95639.55
2022-12-11T13:15:40.120Z,95649.84
2022-12-11T13:18:34.417Z,95656.80
2022-12-11T13:21:24.408Z,95673.14
2022-12-11T13:23:52.732Z,95680.53
2022-12-11T13:26:32.659Z,95668.89
2022-12-11T13:29:00.604Z,95671.13
2022-12-11T13:31:38.125Z,95674.24
2022-12-11T13:34:20.080Z,95671.34
2022-12-11T13:36:50.871Z,95686.58
2022-12-11T13:39:26.899Z,95694.87
2022-12-11T13:42:02.546Z,95699.58
2022-12-11T13:44:38.991Z,95697.13
2022-12-11T13:47:13.167Z,95699.35
2022-12-11T13:49:44.250Z,95696.45
2022-12-11T13:52:21.700Z,95695.34
2022-12-11T13:54:53.322Z,95691.60
2022-12-11T13:57:29.282Z,95698.03
2022-12-11T13:59:58.914Z,95693.55
2022-12-11T14:02:38.294Z,95687.03
2022-12-11T14:05:10.107Z,95679.97
2022-12-11T14:07:45.864Z,95679.75
2022-12-11T14:10:24.893Z,95683.41
2022-12-11T14:13:26.682Z,95679.16
2022-12-11T14:15:54.885Z,95689.14
2022-12-11T14:18:27.152Z,95692.53
2022-12-11T14:21:01.053Z,95695.98
2022-12-11T14:23:32.180Z,95693.41
2022-12-11T14:26:21.952Z,95695.32
2022-12-11T14:28:50.420Z,95709.39
2022-12-11T14:31:32.481Z,95726.38
2022-12-11T14:34:17.405Z,95723.70
2022-12-11T14:36:47.820Z,95727.15
2022-12-11T14:39:33.421Z,95717.63
2022-12-11T14:42:09.582Z,95720.44
2022-12-11T14:44:51.439Z,95730.02
2022-12-11T14:47:36.397Z,95734.17
2022-12-11T14:50:46.505Z,95740.23
2022-12-11T14:53:25.128Z,95743.81
2022-12-11T14:55:53.562Z,95754.55
2022-12-11T14:58:26.753Z,95757.67
2022-12-11T15:01:04.581Z,95757.67
2022-12-11T15:03:38.803Z,95755.64
2022-12-11T15:06:31.959Z,95750.36
2022-12-11T15:09:11.018Z,95759.38
2022-12-11T15:11:38.820Z,95763.39
2022-12-11T15:14:11.211Z,95759.02
2022-12-11T15:16:41.743Z,95761.58
2022-12-11T15:19:28.999Z,95758.11
2022-12-11T15:22:03.439Z,95761.70
2022-12-11T15:24:38.181Z,95774.55
2022-12-11T15:27:09.106Z,95771.21
2022-12-11T15:29:39.622Z,95777.23
2022-12-11T15:32:17.172Z,95778.83
2022-12-11T15:34:58.021Z,95773.86
2022-12-11T15:37:38.023Z,95786.05
2022-12-11T15:40:07.444Z,95789.69
2022-12-11T15:42:40.994Z,95800.53
2022-12-11T15:45:18.748Z,95800.30
2022-12-11T15:47:48.303Z,95813.82
2022-12-11T15:50:21.124Z,95810.96
2022-12-11T15:52:50.897Z,95812.32
2022-12-11T15:55:19.880Z,95821.88
2022-12-11T15:57:55.170Z,95817.31
2022-12-11T16:00:24.052Z,95815.54
2022-12-11T16:02:51.777Z,95823.50
2022-12-11T16:05:21.320Z,95823.45
2022-12-11T16:07:53.519Z,95817.61
2022-12-11T16:10:22.135Z,95818.45
2022-12-11T16:12:51.558Z,95825.31
2022-12-11T16:15:23.388Z,95825.88
2022-12-11T16:17:49.384Z,95823.48
2022-12-11T16:20:18.437Z,95820.91
2022-12-11T16:22:46.016Z,95830.80
2022-12-11T16:25:13.853Z,95827.20
2022-12-11T16:27:42.659Z,95833.70
2022-12-11T16:30:12.982Z,95827.70
2022-12-11T16:32:40.800Z,95833.70
2022-12-11T16:35:08.525Z,95827.17
2022-12-11T16:37:36.086Z,95825.91
2022-12-11T16:40:06.079Z,95830.71
2022-12-11T16:42:34.066Z,95825.41
2022-12-11T16:45:11.305Z,95834.38
2022-12-11T16:47:39.374Z,95830.80
2022-12-11T16:50:08.113Z,95832.06
2022-12-11T16:52:36.131Z,95835.74
2022-12-11T16:55:05.021Z,95834.18
2022-12-11T16:57:32.771Z,95841.08
2022-12-11T17:00:00.403Z,95842.86
2022-12-11T17:02:30.236Z,95839.13
2022-12-11T17:04:58.179Z,95841.83
2022-12-11T17:07:25.889Z,95850.79
2022-12-11T17:09:53.198Z,95852.33
2022-12-11T17:12:22.336Z,95857.55
2022-12-11T17:14:49.550Z,95851.60
2022-12-11T17:17:17.028Z,95850.91
2022-12-11T17:19:44.705Z,95846.66
2022-12-11T17:22:12.282Z,95854.00
2022-12-11T17:24:40.299Z,95855.05
2022-12-11T17:27:08.483Z,95856.14
2022-12-11T17:29:37.425Z,95858.89
2022-12-11T17:32:05.863Z,95863.88
2022-12-11T17:34:38.196Z,95864.52
2022-12-11T17:37:03.425Z,95861.14
2022-12-11T17:39:31.294Z,95868.24
2022-12-11T17:41:59.063Z,95875.20
2022-12-11T17:44:28.632Z,95887.47
2022-12-11T17:46:58.903Z,95880.14
2022-12-11T17:49:26.844Z,95878.70
2022-12-11T17:51:54.848Z,95876.39
2022-12-11T17:54:23.718Z,95874.97
2022-12-11T17:56:51.797Z,95887.58
2022-12-11T17:59:19.403Z,95885.95
2022-12-11T18:01:47.170Z,95891.00
2022-12-11T18:04:14.782Z,95896.48
2022-12-11T18:06:42.395Z,95890.59
2022-12-11T18:09:10.871Z,95890.27
2022-12-11T18:11:38.401Z,95889.15
2022-12-11T18:14:06.029Z,95893.17
2022-12-11T18:16:39.900Z,95904.77
2022-12-11T18:19:07.984Z,95905.19
2022-12-11T18:21:39.850Z,95903.36
2022-12-11T18:24:09.420Z,95905.81
2022-12-11T18:26:37.333Z,95908.83
2022-12-11T18:29:06.250Z,95911.99
2022-12-11T18:31:38.866Z,95913.99
2022-12-11T18:34:05.654Z,95919.20
2022-12-11T18:36:35.731Z,95923.61
2022-12-11T18:39:03.598Z,95927.41
2022-12-11T18:41:31.371Z,95936.80
2022-12-11T18:44:07.975Z,95943.33
2022-12-11T18:46:31.781Z,95946.72
2022-12-11T18:48:59.435Z,95941.05
2022-12-11T18:51:27.191Z,95946.03
2022-12-11T18:53:55.664Z,95955.69
2022-12-11T18:56:23.790Z,95956.34
2022-12-11T18:58:51.495Z,95953.91
2022-12-11T19:01:24.394Z,95960.90
2022-12-11T19:04:03.272Z,95961.84
2022-12-11T19:06:29.835Z,95966.09
2022-12-11T19:08:57.877Z,95956.16
2022-12-11T19:11:28.566Z,95966.08
2022-12-11T19:13:56.798Z,95957.50
2022-12-11T19:16:30.124Z,95956.10
2022-12-11T19:18:58.488Z,95954.20
2022-12-11T19:21:26.888Z,95954.05
2022-12-11T19:23:54.414Z,95955.55
2022-12-11T19:26:23.802Z,95960.58
2022-12-11T19:28:53.473Z,95961.62
2022-12-11T19:31:22.733Z,95963.12
2022-12-11T19:33:50.385Z,95962.56
2022-12-11T19:36:23.498Z,95961.13
2022-12-11T19:38:57.778Z,95961.45
2022-12-11T19:41:28.739Z,95964.30
2022-12-11T19:43:58.348Z,95980.11
2022-12-11T19:46:26.399Z,95982.86
2022-12-11T19:48:56.605Z,95978.35
2022-12-11T19:51:29.634Z,95998.41
2022-12-11T19:54:02.149Z,96002.98
2022-12-11T19:56:31.171Z,96008.04
2022-12-11T19:59:00.165Z,96013.46
2022-12-11T20:01:30.645Z,96011.34
2022-12-11T20:04:02.428Z,96015.92
2022-12-11T20:06:33.032Z,96010.89
2022-12-11T20:09:02.648Z,96001.14
2022-12-11T20:11:32.626Z,96010.44
2022-12-11T20:14:00.329Z,96025.06
2022-12-11T20:16:53.752Z,96013.02
2022-12-11T20:18:57.578Z,95994.11
2022-12-11T20:21:26.848Z,96001.06
2022-12-11T20:23:55.154Z,96000.51
2022-12-11T20:26:24.383Z,96002.14
2022-12-11T20:28:52.890Z,96004.43
2022-12-11T20:31:23.599Z,96017.36
2022-12-11T20:33:53.027Z,96014.52
2022-12-11T20:36:22.530Z,96023.17
2022-12-11T20:38:50.641Z,96020.66
2022-12-11T20:41:21.678Z,96014.58
2022-12-11T20:43:49.770Z,96021.11
2022-12-11T20:46:18.085Z,96021.66
2022-12-11T20:48:46.596Z,96023.33
2022-12-11T20:51:23.957Z,96030.08
2022-12-11T20:53:50.836Z,96034.97
2022-12-11T20:56:20.117Z,96024.88
2022-12-11T20:58:47.876Z,96021.48
2022-12-11T21:01:18.952Z,96030.01
2022-12-11T21:03:47.028Z,96030.85
2022-12-11T21:06:30.385Z,96030.85
2022-12-11T21:09:00.465Z,96030.63
2022-12-11T21:11:28.416Z,96021.03
2022-12-11T21:13:56.206Z,96030.85
2022-12-11T21:16:24.223Z,96027.07
2022-12-11T21:18:52.104Z,96037.55
2022-12-11T21:21:20.854Z,96035.97
2022-12-11T21:23:48.861Z,96041.33
2022-12-11T21:26:17.313Z,96043.22
2022-12-11T21:28:44.911Z,96046.91
2022-12-11T21:31:16.404Z,96053.44
2022-12-11T21:33:45.241Z,96052.91
2022-12-11T21:36:14.419Z,96053.14
2022-12-11T21:38:43.469Z,96047.70
2022-12-11T21:41:15.037Z,96051.97
2022-12-11T21:44:30.980Z,96051.09
2022-12-11T21:46:17.783Z,96047.80
2022-12-11T21:48:47.806Z,96044.34
2022-12-11T21:51:23.284Z,96048.98
2022-12-11T21:53:52.369Z,96047.47
2022-12-11T21:56:22.769Z,96042.12
2022-12-11T21:58:51.839Z,96043.29
2022-12-11T22:01:24.862Z,96045.18
2022-12-11T22:03:53.445Z,96040.14
2022-12-11T22:06:21.068Z,96041.91
2022-12-11T22:08:49.580Z,96039.27
2022-12-11T22:11:24.543Z,96033.67
2022-12-11T22:13:52.414Z,96037.33
2022-12-11T22:16:21.249Z,96049.12
2022-12-11T22:18:49.000Z,96039.69
2022-12-11T22:21:17.063Z,96034.89
2022-12-11T22:23:45.061Z,96050.09
2022-12-11T22:26:20.235Z,96051.48
2022-12-11T22:28:48.869Z,96049.12
2022-12-11T22:31:20.036Z,96056.73
2022-12-11T22:33:49.550Z,96053.57
2022-12-11T22:36:18.427Z,96047.03
2022-12-11T22:38:47.057Z,96061.50
2022-12-11T22:41:25.546Z,96066.20
2022-12-11T22:43:54.219Z,96064.99
2022-12-11T22:46:24.793Z,96064.38
2022-12-11T22:48:53.389Z,96062.67
2022-12-11T22:51:22.290Z,96065.20
2022-12-11T22:53:50.389Z,96072.29
2022-12-11T22:56:18.046Z,96058.86
2022-12-11T22:58:45.607Z,96058.86
2022-12-11T23:01:23.054Z,96057.98
2022-12-11T23:03:50.540Z,96057.53
2022-12-11T23:06:22.679Z,96056.56
2022-12-11T23:08:52.198Z,96056.80
2022-12-11T23:11:27.160Z,96053.17
2022-12-11T23:13:56.253Z,96054.27
2022-12-11T23:16:26.515Z,96051.48
2022-12-11T23:18:55.820Z,96052.41
2022-12-11T23:21:25.978Z,96058.45
2022-12-11T23:23:55.085Z,96066.25
2022-12-11T23:26:23.918Z,96066.13
2022-12-11T23:28:51.408Z,96062.99
2022-12-11T23:31:19.196Z,96066.59
2022-12-11T23:33:47.114Z,96068.89
2022-12-11T23:36:15.010Z,96079.40
2022-12-11T23:38:42.762Z,96077.46
2022-12-11T23:41:13.791Z,96087.78
2022-12-11T23:43:42.272Z,96078.80
2022-12-11T23:46:17.431Z,96086.57
2022-12-11T23:48:45.402Z,96100.66
2022-12-11T23:51:16.522Z,96090.21
2022-12-11T23:53:45.195Z,96090.77
2022-12-11T23:56:17.442Z,96099.06
2022-12-11T23:58:46.324Z,96107.57
